Time,TemperatureF,DewpointF,PressureIn,WindDirection,WindDirectionDegrees,WindSpeedMPH,WindSpeedGustMPH,Humidity,HourlyPrecipIn,Conditions,Clouds,dailyrainin,SoftwareType,DateUTC
2013-02-16 00:02:00,21.9,13.6,29.12,WNW,292,0.0,0.0,70,0.00,CLR,CLR,0.00,WeatherDisplay:10.37,2013-02-16 06:02:00,
2013-02-16 00:07:00,21.7,13.8,29.12,WNW,292,0.0,0.0,71,0.00,CLR,CLR,0.00,WeatherDisplay:10.37,2013-02-16 06:07:00,
2013-02-16 00:12:00,21.9,14.3,29.12,WNW,292,0.0,0.0,72,0.00,CLR,CLR,0.00,WeatherDisplay:10.37,2013-02-16 06:12:00,
2013-02-16 00:17:00,21.9,14.6,29.12,WNW,292,0.0,0.0,73,0.00,CLR,CLR,0.00,WeatherDisplay:10.37,2013-02-16 06:17:00,
2013-02-16 00:22:00,21.9,14.6,29.12,WNW,292,0.0,0.0,73,0.00,CLR,CLR,0.00,WeatherDisplay:10.37,2013-02-16 06:22:00,
2013-02-16 00:27:00,21.7,14.7,29.12,WNW,292,0.0,0.0,74,0.00,CLR,CLR,0.00,WeatherDisplay:10.37,2013-02-16 06:27:00,
2013-02-16 00:32:00,21.9,14.9,29.12,WNW,292,0.0,0.0,74,0.00,CLR,CLR,0.00,WeatherDisplay:10.37,2013-02-16 06:32:00,
2013-02-16 00:37:00,21.9,15.2,29.12,WNW,292,0.0,0.0,75,0.00,CLR,CLR,0.00,WeatherDisplay:10.37,2013-02-16 06:37:00,
2013-02-16 00:42:00,22.1,15.4,29.12,WNW,292,0.0,0.0,75,0.00,CLR,CLR,0.00,WeatherDisplay:10.37,2013-02-16 06:42:00,
2013-02-16 00:47:00,22.1,15.4,29.09,WNW,292,0.0,0.0,75,0.00,CLR,CLR,0.00,WeatherDisplay:10.37,2013-02-16 06:47:00,
2013-02-16 00:52:00,21.9,15.5,29.09,WNW,292,0.0,0.0,76,0.00,CLR,CLR,0.00,WeatherDisplay:10.37,2013-02-16 06:52:00,
2013-02-16 00:57:00,21.9,15.5,29.09,West,270,0.0,0.0,76,0.00,CLR,CLR,0.00,WeatherDisplay:10.37,2013-02-16 06:57:00,
2013-02-16 01:02:00,21.7,15.3,29.12,West,270,0.0,0.0,76,0.00,CLR,CLR,0.00,WeatherDisplay:10.37,2013-02-16 07:02:00,
2013-02-16 01:07:00,21.6,15.2,29.12,West,270,0.0,0.0,76,0.00,CLR,CLR,0.00,WeatherDisplay:10.37,2013-02-16 07:07:00,
2013-02-16 01:12:00,21.4,15.0,29.12,West,270,0.0,0.0,76,0.00,CLR,CLR,0.00,WeatherDisplay:10.37,2013-02-16 07:12:00,
2013-02-16 01:17:00,21.2,14.8,29.09,West,270,0.0,0.0,76,0.00,CLR,CLR,0.00,WeatherDisplay:10.37,2013-02-16 07:17:00,
2013-02-16 01:22:00,21.2,14.8,29.09,West,270,0.0,0.0,76,0.00,CLR,CLR,0.00,WeatherDisplay:10.37,2013-02-16 07:22:00,
2013-02-16 01:27:00,20.8,14.5,29.09,West,270,0.0,0.0,76,0.00,CLR,CLR,0.00,WeatherDisplay:10.37,2013-02-16 07:27:00,
2013-02-16 01:32:00,20.8,14.8,29.09,West,270,0.0,0.0,77,0.00,CLR,CLR,0.00,WeatherDisplay:10.37,2013-02-16 07:32:00,
2013-02-16 01:37:00,20.7,14.6,29.09,West,270,0.0,0.0,77,0.00,CLR,CLR,0.00,WeatherDisplay:10.37,2013-02-16 07:37:00,
2013-02-16 01:42:00,20.7,14.6,29.09,West,270,0.0,0.0,77,0.00,CLR,CLR,0.00,WeatherDisplay:10.37,2013-02-16 07:42:00,
2013-02-16 01:47:00,20.5,14.4,29.09,West,270,0.0,0.0,77,0.00,CLR,CLR,0.00,WeatherDisplay:10.37,2013-02-16 07:47:00,
2013-02-16 01:52:00,20.3,14.2,29.09,West,270,0.0,0.0,77,0.00,CLR,CLR,0.00,WeatherDisplay:10.37,2013-02-16 07:52:00,
2013-02-16 01:57:00,20.3,14.2,29.09,West,270,0.0,0.0,77,0.00,CLR,CLR,0.00,WeatherDisplay:10.37,2013-02-16 07:57:00,
2013-02-16 02:02:00,20.5,14.7,29.09,West,270,0.0,0.0,78,0.00,CLR,CLR,0.00,WeatherDisplay:10.37,2013-02-16 08:02:00,
2013-02-16 02:07:00,20.3,14.5,29.09,West,270,0.0,0.0,78,0.00,CLR,CLR,0.00,WeatherDisplay:10.37,2013-02-16 08:07:00,
2013-02-16 02:12:00,20.3,14.5,29.09,West,270,0.0,0.0,78,0.00,CLR,CLR,0.00,WeatherDisplay:10.37,2013-02-16 08:12:00,
2013-02-16 02:17:00,20.3,14.5,29.09,WSW,248,0.0,0.0,78,0.00,CLR,CLR,0.00,WeatherDisplay:10.37,2013-02-16 08:17:00,
2013-02-16 02:22:00,20.3,14.8,29.09,WSW,248,0.0,0.0,79,0.00,CLR,CLR,0.00,WeatherDisplay:10.37,2013-02-16 08:22:00,
2013-02-16 02:27:00,20.3,14.8,29.09,WSW,248,0.0,0.0,79,0.00,CLR,CLR,0.00,WeatherDisplay:10.37,2013-02-16 08:27:00,
2013-02-16 02:32:00,20.3,14.8,29.09,SW,225,0.0,0.0,79,0.00,CLR,CLR,0.00,WeatherDisplay:10.37,2013-02-16 08:32:00,
2013-02-16 02:37:00,20.3,14.8,29.09,SW,225,0.0,0.0,79,0.00,CLR,CLR,0.00,WeatherDisplay:10.37,2013-02-16 08:37:00,
2013-02-16 02:42:00,20.3,14.8,29.09,SW,225,0.0,0.0,79,0.00,CLR,CLR,0.00,WeatherDisplay:10.37,2013-02-16 08:42:00,
2013-02-16 02:47:00,20.3,14.8,29.09,SW,225,0.0,0.0,79,0.00,CLR,CLR,0.00,WeatherDisplay:10.37,2013-02-16 08:47:00,
2013-02-16 02:52:00,20.3,14.8,29.09,SSW,202,0.0,0.0,79,0.00,CLR,CLR,0.00,WeatherDisplay:10.37,2013-02-16 08:52:00,
2013-02-16 02:57:00,20.1,14.7,29.09,SSW,202,0.0,0.0,79,0.00,CLR,CLR,0.00,WeatherDisplay:10.37,2013-02-16 08:57:00,
2013-02-16 03:02:00,20.1,14.7,29.06,SW,225,0.0,0.0,79,0.00,CLR,CLR,0.00,WeatherDisplay:10.37,2013-02-16 09:02:00,
2013-02-16 03:07:00,20.1,14.7,29.06,SSW,202,0.0,0.0,79,0.00,CLR,CLR,0.00,WeatherDisplay:10.37,2013-02-16 09:07:00,
2013-02-16 03:12:00,20.1,14.7,29.06,SW,225,0.0,0.0,79,0.00,CLR,CLR,0.00,WeatherDisplay:10.37,2013-02-16 09:12:00,
2013-02-16 03:17:00,20.1,14.7,29.06,SW,225,0.0,0.0,79,0.00,CLR,CLR,0.00,WeatherDisplay:10.37,2013-02-16 09:17:00,
2013-02-16 03:22:00,20.1,14.7,29.06,SSW,202,0.0,0.0,79,0.00,CLR,CLR,0.00,WeatherDisplay:10.37,2013-02-16 09:22:00,
2013-02-16 03:27:00,20.1,14.9,29.06,SW,225,0.0,0.0,80,0.00,CLR,CLR,0.00,WeatherDisplay:10.37,2013-02-16 09:27:00,
2013-02-16 03:32:00,20.1,14.9,29.06,SW,225,0.0,0.0,80,0.00,CLR,CLR,0.00,WeatherDisplay:10.37,2013-02-16 09:32:00,
2013-02-16 03:37:00,20.1,14.9,29.06,SW,225,0.0,0.0,80,0.00,CLR,CLR,0.00,WeatherDisplay:10.37,2013-02-16 09:37:00,
2013-02-16 03:42:00,20.1,14.9,29.06,SW,225,2.2,0.0,80,0.00,CLR,CLR,0.00,WeatherDisplay:10.37,2013-02-16 09:42:00,
2013-02-16 03:47:00,19.9,14.8,29.06,SW,225,0.0,0.0,80,0.00,CLR,CLR,0.00,WeatherDisplay:10.37,2013-02-16 09:47:00,
2013-02-16 03:52:00,19.8,14.6,29.06,South,180,0.0,0.0,80,0.00,CLR,CLR,0.00,WeatherDisplay:10.37,2013-02-16 09:52:00,
2013-02-16 03:57:00,19.6,14.4,29.06,SSW,202,0.0,0.0,80,0.00,CLR,CLR,0.00,WeatherDisplay:10.37,2013-02-16 09:57:00,
2013-02-16 04:02:00,19.4,14.2,29.06,SW,225,0.0,0.0,80,0.00,CLR,CLR,0.00,WeatherDisplay:10.37,2013-02-16 10:02:00,
2013-02-16 04:07:00,19.2,14.1,29.06,SW,225,0.0,0.0,80,0.00,CLR,CLR,0.00,WeatherDisplay:10.37,2013-02-16 10:07:00,
2013-02-16 04:12:00,19.0,13.9,29.06,SW,225,0.0,0.0,80,0.00,CLR,CLR,0.00,WeatherDisplay:10.37,2013-02-16 10:12:00,
2013-02-16 04:17:00,19.0,13.9,29.06,SW,225,0.0,0.0,80,0.00,CLR,CLR,0.00,WeatherDisplay:10.37,2013-02-16 10:17:00,
2013-02-16 04:22:00,18.9,13.7,29.06,SW,225,0.0,0.0,80,0.00,CLR,CLR,0.00,WeatherDisplay:10.37,2013-02-16 10:22:00,
2013-02-16 04:27:00,18.7,13.5,29.06,SW,225,0.0,0.0,80,0.00,CLR,CLR,0.00,WeatherDisplay:10.37,2013-02-16 10:27:00,
2013-02-16 04:32:00,18.7,13.5,29.06,SW,225,0.0,0.0,80,0.00,CLR,CLR,0.00,WeatherDisplay:10.37,2013-02-16 10:32:00,
2013-02-16 04:37:00,18.7,13.8,29.06,SW,225,0.0,0.0,81,0.00,CLR,CLR,0.00,WeatherDisplay:10.37,2013-02-16 10:37:00,
2013-02-16 04:42:00,18.5,13.6,29.06,SW,225,0.0,0.0,81,0.00,CLR,CLR,0.00,WeatherDisplay:10.37,2013-02-16 10:42:00,
2013-02-16 04:47:00,18.5,13.6,29.03,SW,225,0.0,0.0,81,0.00,CLR,CLR,0.00,WeatherDisplay:10.37,2013-02-16 10:47:00,
2013-02-16 04:52:00,18.5,13.6,29.03,SW,225,0.0,0.0,81,0.00,CLR,CLR,0.00,WeatherDisplay:10.37,2013-02-16 10:52:00,
2013-02-16 04:57:00,18.7,13.8,29.03,SW,225,0.0,0.0,81,0.00,CLR,CLR,0.00,WeatherDisplay:10.37,2013-02-16 10:57:00,
2013-02-16 05:02:00,18.7,13.8,29.03,SSW,202,0.0,0.0,81,0.00,CLR,CLR,0.00,WeatherDisplay:10.37,2013-02-16 11:02:00,
2013-02-16 05:07:00,19.0,14.2,29.03,SSW,202,0.0,0.0,81,0.00,CLR,CLR,0.00,WeatherDisplay:10.37,2013-02-16 11:07:00,
2013-02-16 05:12:00,19.2,14.3,29.03,SW,225,0.0,0.0,81,0.00,CLR,CLR,0.00,WeatherDisplay:10.37,2013-02-16 11:12:00,
2013-02-16 05:17:00,19.4,14.5,29.03,SSW,202,0.0,0.0,81,0.00,CLR,CLR,0.00,WeatherDisplay:10.37,2013-02-16 11:17:00,
2013-02-16 05:22:00,19.4,14.5,29.03,SW,225,0.0,0.0,81,0.00,CLR,CLR,0.00,WeatherDisplay:10.37,2013-02-16 11:22:00,
2013-02-16 05:27:00,19.6,14.7,29.03,SSW,202,0.0,0.0,81,0.00,CLR,CLR,0.00,WeatherDisplay:10.37,2013-02-16 11:27:00,
2013-02-16 05:32:00,19.4,14.5,29.03,SSW,202,0.0,0.0,81,0.00,CLR,CLR,0.00,WeatherDisplay:10.37,2013-02-16 11:32:00,
2013-02-16 05:37:00,19.4,14.5,29.03,SSW,202,0.0,0.0,81,0.00,CLR,CLR,0.00,WeatherDisplay:10.37,2013-02-16 11:37:00,
2013-02-16 05:42:00,19.4,14.5,29.03,SSW,202,0.0,0.0,81,0.00,CLR,CLR,0.00,WeatherDisplay:10.37,2013-02-16 11:42:00,
2013-02-16 05:47:00,19.6,14.4,29.03,SSW,202,0.0,0.0,80,0.00,CLR,CLR,0.00,WeatherDisplay:10.37,2013-02-16 11:47:00,
2013-02-16 05:52:00,19.6,14.4,29.03,SSW,202,0.0,0.0,80,0.00,CLR,CLR,0.00,WeatherDisplay:10.37,2013-02-16 11:52:00,
2013-02-16 05:57:00,19.6,14.4,29.03,SSW,202,0.0,0.0,80,0.00,CLR,CLR,0.00,WeatherDisplay:10.37,2013-02-16 11:57:00,
2013-02-16 06:02:00,19.8,14.6,29.00,SSW,202,0.0,0.0,80,0.00,CLR,CLR,0.00,WeatherDisplay:10.37,2013-02-16 12:02:00,
2013-02-16 06:07:00,19.9,14.8,29.00,SSW,202,0.0,0.0,80,0.00,CLR,CLR,0.00,WeatherDisplay:10.37,2013-02-16 12:07:00,
2013-02-16 06:12:00,19.9,14.8,29.00,SSW,202,0.0,0.0,80,0.00,CLR,CLR,0.00,WeatherDisplay:10.37,2013-02-16 12:12:00,
2013-02-16 06:17:00,19.9,14.8,29.03,South,180,0.0,0.0,80,0.00,CLR,CLR,0.00,WeatherDisplay:10.37,2013-02-16 12:17:00,
2013-02-16 06:22:00,20.1,14.9,29.03,South,180,0.0,0.0,80,0.00,CLR,CLR,0.00,WeatherDisplay:10.37,2013-02-16 12:22:00,
2013-02-16 06:27:00,20.1,14.9,29.03,South,180,0.0,0.0,80,0.00,CLR,CLR,0.00,WeatherDisplay:10.37,2013-02-16 12:27:00,
2013-02-16 06:32:00,20.3,15.1,29.00,SSW,202,2.3,0.0,80,0.00,CLR,CLR,0.00,WeatherDisplay:10.37,2013-02-16 12:32:00,
2013-02-16 06:37:00,20.3,15.1,29.00,SSW,202,0.0,0.0,80,0.00,CLR,CLR,0.00,WeatherDisplay:10.37,2013-02-16 12:37:00,
2013-02-16 06:42:00,20.3,15.1,29.00,SSW,202,0.0,0.0,80,0.00,CLR,CLR,0.00,WeatherDisplay:10.37,2013-02-16 12:42:00,
2013-02-16 06:47:00,20.3,15.1,29.00,South,180,0.0,0.0,80,0.00,CLR,CLR,0.00,WeatherDisplay:10.37,2013-02-16 12:47:00,
2013-02-16 06:52:00,20.3,15.1,29.00,SSW,202,0.0,0.0,80,0.00,CLR,CLR,0.00,WeatherDisplay:10.37,2013-02-16 12:52:00,
2013-02-16 06:57:00,20.1,14.7,29.00,SSW,202,0.0,0.0,79,0.00,CLR,CLR,0.00,WeatherDisplay:10.37,2013-02-16 12:57:00,
2013-02-16 07:02:00,19.9,14.5,29.00,South,180,0.0,0.0,79,0.00,CLR,CLR,0.00,WeatherDisplay:10.37,2013-02-16 13:02:00,
2013-02-16 07:07:00,19.9,14.2,29.00,South,180,0.0,0.0,78,0.00,CLR,CLR,0.00,WeatherDisplay:10.37,2013-02-16 13:07:00,
2013-02-16 07:12:00,19.8,14.0,29.00,SSW,202,0.0,0.0,78,0.00,CLR,CLR,0.00,WeatherDisplay:10.37,2013-02-16 13:12:00,
2013-02-16 07:17:00,19.6,13.8,29.00,SSW,202,0.0,0.0,78,0.00,CLR,CLR,0.00,WeatherDisplay:10.37,2013-02-16 13:17:00,
2013-02-16 07:22:00,19.4,13.7,29.00,SSW,202,0.0,0.0,78,0.00,CLR,CLR,0.00,WeatherDisplay:10.37,2013-02-16 13:22:00,
2013-02-16 07:27:00,19.4,13.4,29.00,SSW,202,0.0,0.0,77,0.00,CLR,CLR,0.00,WeatherDisplay:10.37,2013-02-16 13:27:00,
2013-02-16 07:32:00,19.2,13.2,29.00,SSW,202,0.0,0.0,77,0.00,CLR,CLR,0.00,WeatherDisplay:10.37,2013-02-16 13:32:00,
2013-02-16 07:37:00,19.2,12.9,29.00,South,180,0.0,0.0,76,0.00,CLR,CLR,0.00,WeatherDisplay:10.37,2013-02-16 13:37:00,
2013-02-16 07:42:00,19.2,12.9,29.00,SSW,202,0.0,0.0,76,0.00,CLR,CLR,0.00,WeatherDisplay:10.37,2013-02-16 13:42:00,
2013-02-16 07:47:00,19.2,12.9,28.97,South,180,0.0,0.0,76,0.00,CLR,CLR,0.00,WeatherDisplay:10.37,2013-02-16 13:47:00,
2013-02-16 07:52:00,19.4,12.8,28.97,SSW,202,0.0,0.0,75,0.00,CLR,CLR,0.00,WeatherDisplay:10.37,2013-02-16 13:52:00,
2013-02-16 07:57:00,19.6,12.9,28.97,South,180,0.0,0.0,75,0.00,CLR,CLR,0.00,WeatherDisplay:10.37,2013-02-16 13:57:00,
2013-02-16 08:02:00,19.9,13.3,28.97,SSW,202,0.0,0.0,75,0.00,CLR,CLR,0.00,WeatherDisplay:10.37,2013-02-16 14:02:00,
2013-02-16 08:07:00,20.1,13.5,28.97,South,180,0.0,0.0,75,0.00,CLR,CLR,0.00,WeatherDisplay:10.37,2013-02-16 14:07:00,
2013-02-16 08:12:00,20.3,13.3,28.97,SSW,202,0.0,0.0,74,0.00,CLR,CLR,0.00,WeatherDisplay:10.37,2013-02-16 14:12:00,
2013-02-16 08:17:00,20.5,13.2,28.97,SE,135,0.0,0.0,73,0.00,CLR,CLR,0.00,WeatherDisplay:10.37,2013-02-16 14:17:00,
2013-02-16 08:22:00,20.3,12.7,28.97,South,180,0.0,0.0,72,0.00,CLR,CLR,0.00,WeatherDisplay:10.37,2013-02-16 14:22:00,
2013-02-16 08:27:00,20.3,12.4,28.97,South,180,0.0,0.0,71,0.00,CLR,CLR,0.00,WeatherDisplay:10.37,2013-02-16 14:27:00,
2013-02-16 08:32:00,20.3,12.1,28.97,SSW,202,0.0,0.0,70,0.00,CLR,CLR,0.00,WeatherDisplay:10.37,2013-02-16 14:32:00,
2013-02-16 08:37:00,20.5,12.2,28.97,South,180,0.0,0.0,70,0.00,CLR,CLR,0.00,WeatherDisplay:10.37,2013-02-16 14:37:00,
2013-02-16 08:42:00,20.3,11.7,28.97,South,180,0.0,0.0,69,0.00,CLR,CLR,0.00,WeatherDisplay:10.37,2013-02-16 14:42:00,
2013-02-16 08:47:00,20.3,11.4,28.97,SSW,202,0.0,0.0,68,0.00,CLR,CLR,0.00,WeatherDisplay:10.37,2013-02-16 14:47:00,
2013-02-16 08:52:00,20.5,11.6,28.97,SSW,202,0.0,0.0,68,0.00,CLR,CLR,0.00,WeatherDisplay:10.37,2013-02-16 14:52:00,
2013-02-16 08:57:00,21.0,11.8,28.97,South,180,0.0,0.0,67,0.00,CLR,CLR,0.00,WeatherDisplay:10.37,2013-02-16 14:57:00,
2013-02-16 09:02:00,21.0,11.8,28.97,SSW,202,0.0,0.0,67,0.00,CLR,CLR,0.00,WeatherDisplay:10.37,2013-02-16 15:02:00,
2013-02-16 09:07:00,21.0,11.4,28.97,SSE,158,0.0,0.0,66,0.00,CLR,CLR,0.00,WeatherDisplay:10.37,2013-02-16 15:07:00,
2013-02-16 09:12:00,21.2,11.9,28.97,SSE,158,0.0,0.0,67,0.00,CLR,CLR,0.00,WeatherDisplay:10.37,2013-02-16 15:12:00,
2013-02-16 09:17:00,21.7,12.5,28.94,South,180,2.3,0.0,67,0.00,CLR,CLR,0.00,WeatherDisplay:10.37,2013-02-16 15:17:00,
2013-02-16 09:22:00,21.9,12.6,28.94,South,180,0.0,0.0,67,0.00,CLR,CLR,0.00,WeatherDisplay:10.37,2013-02-16 15:22:00,
2013-02-16 09:27:00,22.3,12.6,28.94,SSW,202,0.0,0.0,66,0.00,CLR,CLR,0.00,WeatherDisplay:10.37,2013-02-16 15:27:00,
2013-02-16 09:32:00,22.5,12.5,28.94,South,180,0.0,0.0,65,0.00,CLR,CLR,0.00,WeatherDisplay:10.37,2013-02-16 15:32:00,
2013-02-16 09:37:00,22.8,12.5,28.94,SSE,158,3.1,0.0,64,0.00,CLR,CLR,0.00,WeatherDisplay:10.37,2013-02-16 15:37:00,
2013-02-16 09:42:00,23.2,12.1,28.94,South,180,0.0,0.0,62,0.00,CLR,CLR,0.00,WeatherDisplay:10.37,2013-02-16 15:42:00,
2013-02-16 09:47:00,23.7,12.6,28.94,South,180,3.1,0.0,62,0.00,CLR,CLR,0.00,WeatherDisplay:10.37,2013-02-16 15:47:00,
2013-02-16 09:52:00,23.7,11.8,28.94,SSE,158,4.6,4.6,60,0.00,CLR,CLR,0.00,WeatherDisplay:10.37,2013-02-16 15:52:00,
2013-02-16 09:57:00,23.7,11.5,28.94,SSW,202,4.0,0.0,59,0.00,CLR,CLR,0.00,WeatherDisplay:10.37,2013-02-16 15:57:00,
2013-02-16 10:02:00,23.7,10.7,28.94,SSW,202,8.3,8.3,57,0.00,CLR,CLR,0.00,WeatherDisplay:10.37,2013-02-16 16:02:00,
2013-02-16 10:07:00,24.4,11.4,28.94,SSW,202,0.0,0.0,57,0.00,CLR,CLR,0.00,WeatherDisplay:10.37,2013-02-16 16:07:00,
2013-02-16 10:12:00,24.8,11.7,28.94,South,180,4.0,0.0,57,0.00,CLR,CLR,0.00,WeatherDisplay:10.37,2013-02-16 16:12:00,
2013-02-16 10:17:00,25.2,11.6,28.94,South,180,4.9,4.9,56,0.00,CLR,CLR,0.00,WeatherDisplay:10.37,2013-02-16 16:17:00,
2013-02-16 10:22:00,25.3,11.0,28.94,SSW,202,3.6,0.0,54,0.00,CLR,CLR,0.00,WeatherDisplay:10.37,2013-02-16 16:22:00,
2013-02-16 10:28:00,26.1,11.7,28.94,South,180,3.6,3.6,54,0.00,CLR,CLR,0.00,WeatherDisplay:10.37,2013-02-16 16:28:00,
2013-02-16 10:33:00,26.4,11.6,28.94,South,180,5.8,0.0,53,0.00,CLR,CLR,0.00,WeatherDisplay:10.37,2013-02-16 16:33:00,
2013-02-16 10:38:00,26.2,11.0,28.94,South,180,7.1,0.0,52,0.00,CLR,CLR,0.00,WeatherDisplay:10.37,2013-02-16 16:38:00,
2013-02-16 10:43:00,26.8,11.5,28.94,SSW,202,2.6,0.0,52,0.00,CLR,CLR,0.00,WeatherDisplay:10.37,2013-02-16 16:43:00,
2013-02-16 10:48:00,27.1,11.8,28.91,South,180,2.6,0.0,52,0.00,CLR,CLR,0.00,WeatherDisplay:10.37,2013-02-16 16:48:00,
2013-02-16 10:53:00,27.7,12.3,28.91,South,180,3.5,0.0,52,0.00,CLR,CLR,0.00,WeatherDisplay:10.37,2013-02-16 16:53:00,
2013-02-16 10:58:00,27.7,12.3,28.91,SSW,202,3.6,0.0,52,0.00,CLR,CLR,0.00,WeatherDisplay:10.37,2013-02-16 16:58:00,
2013-02-16 11:03:00,28.2,12.8,28.91,SE,135,2.6,0.0,52,0.00,CLR,CLR,0.00,WeatherDisplay:10.37,2013-02-16 17:03:00,
2013-02-16 11:08:00,28.6,13.2,28.91,SSW,202,4.5,0.0,52,0.00,CLR,CLR,0.00,WeatherDisplay:10.37,2013-02-16 17:08:00,
2013-02-16 11:13:00,28.4,13.0,28.91,SSW,202,4.6,0.0,52,0.00,CLR,CLR,0.00,WeatherDisplay:10.37,2013-02-16 17:13:00,
2013-02-16 11:18:00,28.6,13.2,28.91,South,180,2.3,0.0,52,0.00,CLR,CLR,0.00,WeatherDisplay:10.37,2013-02-16 17:18:00,
2013-02-16 11:23:00,28.8,13.8,28.91,South,180,0.0,0.0,53,0.00,CLR,CLR,0.00,WeatherDisplay:10.37,2013-02-16 17:23:00,
2013-02-16 11:28:00,28.9,13.9,28.91,South,180,2.6,0.0,53,0.00,CLR,CLR,0.00,WeatherDisplay:10.37,2013-02-16 17:28:00,
2013-02-16 11:33:00,29.5,14.4,28.91,SSE,158,2.6,0.0,53,0.00,CLR,CLR,0.00,WeatherDisplay:10.37,2013-02-16 17:33:00,
2013-02-16 11:38:00,29.8,14.8,28.91,SSE,158,4.0,0.0,53,0.00,CLR,CLR,0.00,WeatherDisplay:10.37,2013-02-16 17:38:00,
2013-02-16 11:43:00,29.7,14.2,28.91,SSE,158,3.6,3.6,52,0.00,CLR,CLR,0.00,WeatherDisplay:10.37,2013-02-16 17:43:00,
2013-02-16 11:48:00,29.8,14.3,28.91,South,180,2.3,0.0,52,0.00,CLR,CLR,0.00,WeatherDisplay:10.37,2013-02-16 17:48:00,
2013-02-16 11:53:00,30.2,14.2,28.91,South,180,4.6,4.6,51,0.00,CLR,CLR,0.00,WeatherDisplay:10.37,2013-02-16 17:53:00,
2013-02-16 11:58:00,30.9,14.0,28.91,South,180,0.0,0.0,49,0.00,CLR,CLR,0.00,WeatherDisplay:10.37,2013-02-16 17:58:00,
2013-02-16 12:03:00,30.9,13.0,28.88,South,180,4.6,4.6,47,0.00,CLR,CLR,0.00,WeatherDisplay:10.37,2013-02-16 18:03:00,
2013-02-16 12:08:00,30.7,12.4,28.88,SSE,158,5.4,0.0,46,0.00,CLR,CLR,0.00,WeatherDisplay:10.37,2013-02-16 18:08:00,
2013-02-16 12:13:00,31.1,12.7,28.88,SSE,158,3.5,0.0,46,0.00,CLR,CLR,0.00,WeatherDisplay:10.37,2013-02-16 18:13:00,
2013-02-16 12:18:00,30.9,12.0,28.88,SSW,202,4.9,4.9,45,0.00,CLR,CLR,0.00,WeatherDisplay:10.37,2013-02-16 18:18:00,
2013-02-16 12:23:00,30.4,11.5,28.88,South,180,6.7,6.7,45,0.00,CLR,CLR,0.00,WeatherDisplay:10.37,2013-02-16 18:23:00,
2013-02-16 12:28:00,30.7,12.4,28.88,East,90,4.5,0.0,46,0.00,CLR,CLR,0.00,WeatherDisplay:10.37,2013-02-16 18:28:00,
2013-02-16 12:33:00,31.1,12.7,28.88,ESE,112,3.1,0.0,46,0.00,CLR,CLR,0.00,WeatherDisplay:10.37,2013-02-16 18:33:00,
2013-02-16 12:38:00,30.9,12.0,28.88,ESE,112,2.3,0.0,45,0.00,CLR,CLR,0.00,WeatherDisplay:10.37,2013-02-16 18:38:00,
2013-02-16 12:43:00,31.5,13.0,28.88,SSE,158,4.9,0.0,46,0.00,CLR,CLR,0.00,WeatherDisplay:10.37,2013-02-16 18:43:00,
2013-02-16 12:48:00,31.8,12.9,28.85,SE,135,5.9,5.9,45,0.00,CLR,CLR,0.00,WeatherDisplay:10.37,2013-02-16 18:48:00,
2013-02-16 12:53:00,31.8,12.4,28.85,SSE,158,5.8,5.8,44,0.00,CLR,CLR,0.00,WeatherDisplay:10.37,2013-02-16 18:53:00,
2013-02-16 12:58:00,31.6,12.2,28.85,SSE,158,6.7,6.7,44,0.00,CLR,CLR,0.00,WeatherDisplay:10.37,2013-02-16 18:58:00,
2013-02-16 13:03:00,32.2,13.2,28.85,SSE,158,6.9,6.9,45,0.00,CLR,CLR,0.00,WeatherDisplay:10.37,2013-02-16 19:03:00,
2013-02-16 13:08:00,32.2,12.7,28.85,SSE,158,3.6,3.6,44,0.00,CLR,CLR,0.00,WeatherDisplay:10.37,2013-02-16 19:08:00,
2013-02-16 13:13:00,32.0,12.5,28.85,South,180,4.6,4.6,44,0.00,CLR,CLR,0.00,WeatherDisplay:10.37,2013-02-16 19:13:00,
2013-02-16 13:19:00,32.0,12.5,28.85,SE,135,2.6,0.0,44,0.00,CLR,CLR,0.00,WeatherDisplay:10.37,2013-02-16 19:19:00,
2013-02-16 13:24:00,32.5,13.5,28.85,South,180,0.0,0.0,45,0.00,CLR,CLR,0.00,WeatherDisplay:10.37,2013-02-16 19:24:00,
2013-02-16 13:29:00,32.5,13.0,28.85,SSE,158,8.1,8.1,44,0.00,CLR,CLR,0.00,WeatherDisplay:10.37,2013-02-16 19:29:00,
2013-02-16 13:34:00,32.7,13.2,28.85,SE,135,8.1,8.1,44,0.00,CLR,CLR,0.00,WeatherDisplay:10.37,2013-02-16 19:34:00,
2013-02-16 13:39:00,33.3,13.7,28.85,SE,135,8.1,8.1,44,0.00,CLR,CLR,0.00,WeatherDisplay:10.37,2013-02-16 19:39:00,
2013-02-16 13:44:00,33.8,13.6,28.85,South,180,4.6,0.0,43,0.00,CLR,CLR,0.00,WeatherDisplay:10.37,2013-02-16 19:44:00,
2013-02-16 13:49:00,34.0,13.8,28.85,SE,135,8.3,8.3,43,0.00,CLR,CLR,0.00,WeatherDisplay:10.37,2013-02-16 19:49:00,
2013-02-16 13:54:00,34.7,14.5,28.85,ESE,112,8.3,8.3,43,0.00,CLR,CLR,0.00,WeatherDisplay:10.37,2013-02-16 19:54:00,
2013-02-16 13:59:00,34.9,14.6,28.85,SSE,158,7.1,7.1,43,0.00,CLR,CLR,0.00,WeatherDisplay:10.37,2013-02-16 19:59:00,
2013-02-16 14:04:00,34.9,14.6,28.85,South,180,4.6,4.6,43,0.00,CLR,CLR,0.00,WeatherDisplay:10.37,2013-02-16 20:04:00,
2013-02-16 14:09:00,35.1,14.8,28.85,South,180,3.6,0.0,43,0.00,CLR,CLR,0.00,WeatherDisplay:10.37,2013-02-16 20:09:00,
2013-02-16 14:14:00,35.4,15.1,28.85,SSE,158,3.6,0.0,43,0.00,CLR,CLR,0.00,WeatherDisplay:10.37,2013-02-16 20:14:00,
2013-02-16 14:19:00,35.1,14.8,28.85,SE,135,4.6,4.6,43,0.00,CLR,CLR,0.00,WeatherDisplay:10.37,2013-02-16 20:19:00,
2013-02-16 14:24:00,35.4,15.1,28.85,South,180,4.6,4.6,43,0.00,CLR,CLR,0.00,WeatherDisplay:10.37,2013-02-16 20:24:00,
2013-02-16 14:29:00,36.1,15.2,28.85,SSW,202,4.9,4.9,42,0.00,CLR,CLR,0.00,WeatherDisplay:10.37,2013-02-16 20:29:00,
2013-02-16 14:34:00,35.4,15.1,28.85,SSW,202,2.6,0.0,43,0.00,CLR,CLR,0.00,WeatherDisplay:10.37,2013-02-16 20:34:00,
2013-02-16 14:39:00,35.8,14.9,28.85,SSE,158,5.8,5.8,42,0.00,CLR,CLR,0.00,WeatherDisplay:10.37,2013-02-16 20:39:00,
2013-02-16 14:44:00,35.8,14.9,28.85,South,180,5.8,0.0,42,0.00,CLR,CLR,0.00,WeatherDisplay:10.37,2013-02-16 20:44:00,
2013-02-16 14:49:00,35.8,15.4,28.82,SW,225,4.0,0.0,43,0.00,CLR,CLR,0.00,WeatherDisplay:10.37,2013-02-16 20:49:00,
2013-02-16 14:54:00,36.0,15.1,28.82,SSE,158,5.8,5.8,42,0.00,CLR,CLR,0.00,WeatherDisplay:10.37,2013-02-16 20:54:00,
2013-02-16 14:59:00,36.0,15.6,28.82,SE,135,2.3,0.0,43,0.00,CLR,CLR,0.00,WeatherDisplay:10.37,2013-02-16 20:59:00,
2013-02-16 15:04:00,36.5,15.6,28.82,South,180,2.6,0.0,42,0.00,CLR,CLR,0.00,WeatherDisplay:10.37,2013-02-16 21:04:00,
2013-02-16 15:09:00,36.7,15.2,28.82,South,180,2.6,0.0,41,0.00,CLR,CLR,0.00,WeatherDisplay:10.37,2013-02-16 21:09:00,
2013-02-16 15:14:00,36.5,15.0,28.82,South,180,2.3,0.0,41,0.00,CLR,CLR,0.00,WeatherDisplay:10.37,2013-02-16 21:14:00,
2013-02-16 15:19:00,37.6,15.4,28.82,East,90,4.6,0.0,40,0.00,CLR,CLR,0.00,WeatherDisplay:10.37,2013-02-16 21:19:00,
2013-02-16 15:24:00,37.6,15.4,28.82,SE,135,2.6,0.0,40,0.00,CLR,CLR,0.00,WeatherDisplay:10.37,2013-02-16 21:24:00,
2013-02-16 15:29:00,37.6,15.4,28.82,SE,135,5.9,0.0,40,0.00,CLR,CLR,0.00,WeatherDisplay:10.37,2013-02-16 21:29:00,
2013-02-16 15:34:00,37.9,15.1,28.82,SSE,158,2.3,0.0,39,0.00,CLR,CLR,0.00,WeatherDisplay:10.37,2013-02-16 21:34:00,
2013-02-16 15:39:00,37.6,14.8,28.82,South,180,3.5,0.0,39,0.00,CLR,CLR,0.00,WeatherDisplay:10.37,2013-02-16 21:39:00,
2013-02-16 15:44:00,37.6,14.8,28.82,SE,135,6.2,6.2,39,0.00,CLR,CLR,0.00,WeatherDisplay:10.37,2013-02-16 21:44:00,
2013-02-16 15:49:00,37.6,14.8,28.82,South,180,5.8,5.8,39,0.00,CLR,CLR,0.00,WeatherDisplay:10.37,2013-02-16 21:49:00,
2013-02-16 15:54:00,37.9,15.1,28.82,SSE,158,3.6,0.0,39,0.00,CLR,CLR,0.00,WeatherDisplay:10.37,2013-02-16 21:54:00,
2013-02-16 15:59:00,38.1,15.3,28.82,South,180,5.8,5.8,39,0.00,CLR,CLR,0.00,WeatherDisplay:10.37,2013-02-16 21:59:00,
2013-02-16 16:04:00,38.1,14.7,28.82,East,90,8.1,8.1,38,0.00,CLR,CLR,0.00,WeatherDisplay:10.37,2013-02-16 22:04:00,
2013-02-16 16:09:00,37.9,13.3,28.82,South,180,4.6,0.0,36,0.00,CLR,CLR,0.00,WeatherDisplay:10.37,2013-02-16 22:09:00,
2013-02-16 16:14:00,38.3,13.6,28.82,South,180,6.2,6.2,36,0.00,CLR,CLR,0.00,WeatherDisplay:10.37,2013-02-16 22:14:00,
2013-02-16 16:19:00,38.3,13.0,28.82,SSE,158,3.6,0.0,35,0.00,CLR,CLR,0.00,WeatherDisplay:10.37,2013-02-16 22:19:00,
2013-02-16 16:24:00,37.9,12.7,28.82,SSE,158,3.5,3.5,35,0.00,CLR,CLR,0.00,WeatherDisplay:10.37,2013-02-16 22:24:00,
2013-02-16 16:29:00,37.9,12.7,28.82,SSE,158,0.0,0.0,35,0.00,CLR,CLR,0.00,WeatherDisplay:10.37,2013-02-16 22:29:00,
2013-02-16 16:34:00,37.8,12.5,28.82,South,180,3.6,0.0,35,0.00,CLR,CLR,0.00,WeatherDisplay:10.37,2013-02-16 22:34:00,
2013-02-16 16:39:00,37.9,12.0,28.82,SSE,158,0.0,0.0,34,0.00,CLR,CLR,0.00,WeatherDisplay:10.37,2013-02-16 22:39:00,
2013-02-16 16:44:00,37.9,12.0,28.82,SE,135,6.2,6.2,34,0.00,CLR,CLR,0.00,WeatherDisplay:10.37,2013-02-16 22:44:00,
2013-02-16 16:49:00,37.8,11.2,28.82,SSE,158,2.3,0.0,33,0.00,CLR,CLR,0.00,WeatherDisplay:10.37,2013-02-16 22:49:00,
2013-02-16 16:54:00,37.6,11.0,28.82,SSE,158,3.5,0.0,33,0.00,CLR,CLR,0.00,WeatherDisplay:10.37,2013-02-16 22:54:00,
2013-02-16 16:59:00,37.6,11.0,28.82,ESE,112,0.0,0.0,33,0.00,CLR,CLR,0.00,WeatherDisplay:10.37,2013-02-16 22:59:00,
2013-02-16 17:04:00,37.4,10.9,28.82,SE,135,4.6,4.6,33,0.00,CLR,CLR,0.00,WeatherDisplay:10.37,2013-02-16 23:04:00,
2013-02-16 17:09:00,37.4,10.9,28.82,ESE,112,0.0,0.0,33,0.00,CLR,CLR,0.00,WeatherDisplay:10.37,2013-02-16 23:09:00,
2013-02-16 17:14:00,37.6,11.0,28.82,SSE,158,0.0,0.0,33,0.00,CLR,CLR,0.00,WeatherDisplay:10.37,2013-02-16 23:14:00,
2013-02-16 17:19:00,37.6,11.0,28.79,ESE,112,2.3,0.0,33,0.00,CLR,CLR,0.00,WeatherDisplay:10.37,2013-02-16 23:19:00,
2013-02-16 17:24:00,37.4,10.9,28.79,SE,135,0.0,0.0,33,0.00,CLR,CLR,0.00,WeatherDisplay:10.37,2013-02-16 23:24:00,
2013-02-16 17:29:00,37.2,11.4,28.82,ESE,112,0.0,0.0,34,0.00,CLR,CLR,0.00,WeatherDisplay:10.37,2013-02-16 23:29:00,
2013-02-16 17:34:00,37.2,11.4,28.82,SE,135,2.6,0.0,34,0.00,CLR,CLR,0.00,WeatherDisplay:10.37,2013-02-16 23:34:00,
2013-02-16 17:39:00,37.2,11.4,28.82,SE,135,3.6,3.6,34,0.00,CLR,CLR,0.00,WeatherDisplay:10.37,2013-02-16 23:39:00,
2013-02-16 17:44:00,37.0,11.2,28.82,ESE,112,0.0,0.0,34,0.00,CLR,CLR,0.00,WeatherDisplay:10.37,2013-02-16 23:44:00,
2013-02-16 17:49:00,37.0,11.2,28.79,East,90,2.3,0.0,34,0.00,CLR,CLR,0.00,WeatherDisplay:10.37,2013-02-16 23:49:00,
2013-02-16 17:54:00,37.0,11.9,28.79,ESE,112,0.0,0.0,35,0.00,CLR,CLR,0.00,WeatherDisplay:10.37,2013-02-16 23:54:00,
2013-02-16 17:59:00,36.9,11.7,28.82,SE,135,2.6,0.0,35,0.00,CLR,CLR,0.00,WeatherDisplay:10.37,2013-02-16 23:59:00,
2013-02-16 18:04:00,36.9,11.7,28.82,SSE,158,0.0,0.0,35,0.00,CLR,CLR,0.00,WeatherDisplay:10.37,2013-02-17 00:04:00,
2013-02-16 18:09:00,36.9,11.7,28.82,ESE,112,0.0,0.0,35,0.00,CLR,CLR,0.00,WeatherDisplay:10.37,2013-02-17 00:09:00,
2013-02-16 18:14:00,36.7,12.2,28.82,SE,135,0.0,0.0,36,0.00,CLR,CLR,0.00,WeatherDisplay:10.37,2013-02-17 00:14:00,
2013-02-16 18:19:00,36.7,12.2,28.82,ESE,112,0.0,0.0,36,0.00,CLR,CLR,0.00,WeatherDisplay:10.37,2013-02-17 00:19:00,
2013-02-16 18:24:00,36.7,12.2,28.82,SE,135,0.0,0.0,36,0.00,CLR,CLR,0.00,WeatherDisplay:10.37,2013-02-17 00:24:00,
2013-02-16 18:29:00,36.5,12.7,28.82,SE,135,0.0,0.0,37,0.00,CLR,CLR,0.00,WeatherDisplay:10.37,2013-02-17 00:29:00,
2013-02-16 18:34:00,36.3,12.5,28.82,SE,135,0.0,0.0,37,0.00,CLR,CLR,0.00,WeatherDisplay:10.37,2013-02-17 00:34:00,
2013-02-16 18:39:00,36.1,12.3,28.82,SE,135,0.0,0.0,37,0.00,CLR,CLR,0.00,WeatherDisplay:10.37,2013-02-17 00:39:00,
2013-02-16 18:44:00,36.1,12.3,28.82,ESE,112,0.0,0.0,37,0.00,CLR,CLR,0.00,WeatherDisplay:10.37,2013-02-17 00:44:00,
2013-02-16 18:49:00,36.1,12.3,28.82,ESE,112,0.0,0.0,37,0.00,CLR,CLR,0.00,WeatherDisplay:10.37,2013-02-17 00:49:00,
2013-02-16 18:54:00,36.0,13.4,28.82,East,90,0.0,0.0,39,0.00,CLR,CLR,0.00,WeatherDisplay:10.37,2013-02-17 00:54:00,
2013-02-16 18:59:00,36.0,13.4,28.82,SE,135,0.0,0.0,39,0.00,CLR,CLR,0.00,WeatherDisplay:10.37,2013-02-17 00:59:00,
2013-02-16 19:04:00,35.8,13.2,28.79,SE,135,0.0,0.0,39,0.00,CLR,CLR,0.00,WeatherDisplay:10.37,2013-02-17 01:04:00,
2013-02-16 19:09:00,35.8,13.2,28.79,SSE,158,0.0,0.0,39,0.00,CLR,CLR,0.00,WeatherDisplay:10.37,2013-02-17 01:09:00,
2013-02-16 19:14:00,35.6,13.6,28.82,SE,135,0.0,0.0,40,0.00,CLR,CLR,0.00,WeatherDisplay:10.37,2013-02-17 01:14:00,
2013-02-16 19:19:00,35.4,14.0,28.82,East,90,0.0,0.0,41,0.00,CLR,CLR,0.00,WeatherDisplay:10.37,2013-02-17 01:19:00,
2013-02-16 19:24:00,34.7,15.0,28.82,East,90,0.0,0.0,44,0.00,CLR,CLR,0.00,WeatherDisplay:10.37,2013-02-17 01:24:00,
2013-02-16 19:29:00,34.2,16.5,28.79,East,90,0.0,0.0,48,0.00,CLR,CLR,0.00,WeatherDisplay:10.37,2013-02-17 01:29:00,
2013-02-16 19:34:00,34.0,16.8,28.79,ENE,68,0.0,0.0,49,0.00,CLR,CLR,0.00,WeatherDisplay:10.37,2013-02-17 01:34:00,
2013-02-16 19:39:00,33.6,17.4,28.79,ENE,68,0.0,0.0,51,0.00,CLR,CLR,0.00,WeatherDisplay:10.37,2013-02-17 01:39:00,
2013-02-16 19:44:00,33.6,17.4,28.79,ENE,68,0.0,0.0,51,0.00,CLR,CLR,0.00,WeatherDisplay:10.37,2013-02-17 01:44:00,
2013-02-16 19:49:00,33.6,17.8,28.79,ENE,68,0.0,0.0,52,0.00,CLR,CLR,0.00,WeatherDisplay:10.37,2013-02-17 01:49:00,
2013-02-16 19:54:00,33.6,17.8,28.79,ENE,68,0.0,0.0,52,0.00,CLR,CLR,0.00,WeatherDisplay:10.37,2013-02-17 01:54:00,
2013-02-16 19:59:00,33.6,17.8,28.79,ENE,68,0.0,0.0,52,0.00,CLR,CLR,0.00,WeatherDisplay:10.37,2013-02-17 01:59:00,
2013-02-16 20:04:00,33.6,17.8,28.79,ENE,68,0.0,0.0,52,0.00,CLR,CLR,0.00,WeatherDisplay:10.37,2013-02-17 02:04:00,
2013-02-16 20:09:00,33.6,17.8,28.79,ENE,68,0.0,0.0,52,0.00,CLR,CLR,0.00,WeatherDisplay:10.37,2013-02-17 02:09:00,
2013-02-16 20:14:00,33.6,18.3,28.79,ENE,68,0.0,0.0,53,0.00,CLR,CLR,0.00,WeatherDisplay:10.37,2013-02-17 02:14:00,
2013-02-16 20:19:00,33.4,18.1,28.79,ENE,68,0.0,0.0,53,0.00,CLR,CLR,0.00,WeatherDisplay:10.37,2013-02-17 02:19:00,
2013-02-16 20:24:00,33.4,18.6,28.79,ENE,68,0.0,0.0,54,0.00,CLR,CLR,0.00,WeatherDisplay:10.37,2013-02-17 02:24:00,
2013-02-16 20:29:00,33.4,18.6,28.79,ENE,68,0.0,0.0,54,0.00,CLR,CLR,0.00,WeatherDisplay:10.37,2013-02-17 02:29:00,
2013-02-16 20:34:00,33.3,18.4,28.79,ENE,68,0.0,0.0,54,0.00,CLR,CLR,0.00,WeatherDisplay:10.37,2013-02-17 02:34:00,
2013-02-16 20:39:00,33.3,18.8,28.79,ENE,68,0.0,0.0,55,0.00,CLR,CLR,0.00,WeatherDisplay:10.37,2013-02-17 02:39:00,
2013-02-16 20:44:00,33.1,18.7,28.79,ENE,68,0.0,0.0,55,0.00,CLR,CLR,0.00,WeatherDisplay:10.37,2013-02-17 02:44:00,
2013-02-16 20:49:00,33.1,18.7,28.79,ENE,68,0.0,0.0,55,0.00,CLR,CLR,0.00,WeatherDisplay:10.37,2013-02-17 02:49:00,
2013-02-16 20:54:00,33.1,19.1,28.79,ENE,68,0.0,0.0,56,0.00,CLR,CLR,0.00,WeatherDisplay:10.37,2013-02-17 02:54:00,
2013-02-16 20:59:00,33.1,19.1,28.79,ENE,68,0.0,0.0,56,0.00,CLR,CLR,0.00,WeatherDisplay:10.37,2013-02-17 02:59:00,
2013-02-16 21:04:00,33.1,19.1,28.79,ENE,68,0.0,0.0,56,0.00,CLR,CLR,0.00,WeatherDisplay:10.37,2013-02-17 03:04:00,
2013-02-16 21:09:00,33.1,19.1,28.79,ENE,68,0.0,0.0,56,0.00,CLR,CLR,0.00,WeatherDisplay:10.37,2013-02-17 03:09:00,
2013-02-16 21:14:00,33.3,18.8,28.79,ENE,68,0.0,0.0,55,0.00,CLR,CLR,0.00,WeatherDisplay:10.37,2013-02-17 03:14:00,
2013-02-16 21:19:00,33.3,18.8,28.79,SE,135,0.0,0.0,55,0.00,CLR,CLR,0.00,WeatherDisplay:10.37,2013-02-17 03:19:00,
2013-02-16 21:24:00,33.3,18.4,28.79,SE,135,0.0,0.0,54,0.00,CLR,CLR,0.00,WeatherDisplay:10.37,2013-02-17 03:24:00,
2013-02-16 21:29:00,33.1,18.2,28.79,SE,135,0.0,0.0,54,0.00,CLR,CLR,0.00,WeatherDisplay:10.37,2013-02-17 03:29:00,
2013-02-16 21:34:00,33.1,18.2,28.79,SE,135,0.0,0.0,54,0.00,CLR,CLR,0.00,WeatherDisplay:10.37,2013-02-17 03:34:00,
2013-02-16 21:39:00,32.9,18.1,28.79,SE,135,0.0,0.0,54,0.00,CLR,CLR,0.00,WeatherDisplay:10.37,2013-02-17 03:39:00,
2013-02-16 21:44:00,32.7,17.9,28.79,SE,135,0.0,0.0,54,0.00,CLR,CLR,0.00,WeatherDisplay:10.37,2013-02-17 03:44:00,
2013-02-16 21:49:00,32.5,17.7,28.79,SE,135,0.0,0.0,54,0.00,CLR,CLR,0.00,WeatherDisplay:10.37,2013-02-17 03:49:00,
2013-02-16 21:54:00,32.4,18.0,28.79,SE,135,0.0,0.0,55,0.00,CLR,CLR,0.00,WeatherDisplay:10.37,2013-02-17 03:54:00,
2013-02-16 21:59:00,32.0,17.6,28.79,SE,135,0.0,0.0,55,0.00,CLR,CLR,0.00,WeatherDisplay:10.37,2013-02-17 03:59:00,
2013-02-16 22:04:00,31.6,17.3,28.79,SE,135,0.0,0.0,55,0.00,CLR,CLR,0.00,WeatherDisplay:10.37,2013-02-17 04:04:00,
2013-02-16 22:09:00,31.3,17.4,28.79,SE,135,0.0,0.0,56,0.00,CLR,CLR,0.00,WeatherDisplay:10.37,2013-02-17 04:09:00,
2013-02-16 22:14:00,30.7,17.3,28.79,SE,135,0.0,0.0,57,0.00,CLR,CLR,0.00,WeatherDisplay:10.37,2013-02-17 04:14:00,
2013-02-16 22:19:00,30.4,17.4,28.79,SE,135,0.0,0.0,58,0.00,CLR,CLR,0.00,WeatherDisplay:10.37,2013-02-17 04:19:00,
2013-02-16 22:25:00,30.0,17.4,28.79,SE,135,0.0,0.0,59,0.00,CLR,CLR,0.00,WeatherDisplay:10.37,2013-02-17 04:25:00,
2013-02-16 22:30:00,30.0,18.2,28.79,SE,135,0.0,0.0,61,0.00,CLR,CLR,0.00,WeatherDisplay:10.37,2013-02-17 04:30:00,
2013-02-16 22:35:00,29.8,18.4,28.79,SE,135,0.0,0.0,62,0.00,CLR,CLR,0.00,WeatherDisplay:10.37,2013-02-17 04:35:00,
2013-02-16 22:40:00,29.5,18.1,28.79,SE,135,0.0,0.0,62,0.00,CLR,CLR,0.00,WeatherDisplay:10.37,2013-02-17 04:40:00,
2013-02-16 22:45:00,29.1,17.7,28.79,SE,135,0.0,0.0,62,0.00,CLR,CLR,0.00,WeatherDisplay:10.37,2013-02-17 04:45:00,
2013-02-16 22:51:00,28.8,17.7,28.79,SE,135,0.0,0.0,63,0.00,CLR,CLR,0.00,WeatherDisplay:10.37,2013-02-17 04:51:00,
2013-02-16 22:56:00,28.8,18.1,28.79,SE,135,0.0,0.0,64,0.00,CLR,CLR,0.00,WeatherDisplay:10.37,2013-02-17 04:56:00,
2013-02-16 23:00:00,28.6,18.3,28.79,SE,135,0.0,0.0,65,0.00,CLR,CLR,0.00,WeatherDisplay:10.37,2013-02-17 05:00:00,
2013-02-16 23:01:00,28.6,18.3,28.79,SE,135,0.0,0.0,65,0.00,CLR,CLR,0.00,WeatherDisplay:10.37,2013-02-17 05:01:00,
2013-02-16 23:05:00,28.8,18.8,28.79,SE,135,0.0,0.0,66,0.00,CLR,CLR,0.00,WeatherDisplay:10.37,2013-02-17 05:05:00,
2013-02-16 23:10:00,28.9,19.3,28.79,SE,135,0.0,0.0,67,0.00,CLR,CLR,0.00,WeatherDisplay:10.37,2013-02-17 05:10:00,
2013-02-16 23:12:00,28.9,19.3,28.79,SE,135,0.0,0.0,67,0.00,CLR,CLR,0.00,WeatherDisplay:10.37,2013-02-17 05:12:00,
2013-02-16 23:17:00,28.9,19.7,28.79,SE,135,0.0,0.0,68,0.00,CLR,CLR,0.00,WeatherDisplay:10.37,2013-02-17 05:17:00,
2013-02-16 23:22:00,28.9,19.7,28.79,SE,135,0.0,0.0,68,0.00,CLR,CLR,0.00,WeatherDisplay:10.37,2013-02-17 05:22:00,
2013-02-16 23:27:00,28.8,19.5,28.79,SE,135,0.0,0.0,68,0.00,CLR,CLR,0.00,WeatherDisplay:10.37,2013-02-17 05:27:00,
2013-02-16 23:32:00,28.6,19.7,28.79,SE,135,0.0,0.0,69,0.00,CLR,CLR,0.00,WeatherDisplay:10.37,2013-02-17 05:32:00,
2013-02-16 23:37:00,28.6,19.7,28.79,SE,135,0.0,0.0,69,0.00,CLR,CLR,0.00,WeatherDisplay:10.37,2013-02-17 05:37:00,
2013-02-16 23:42:00,28.9,20.4,28.79,SE,135,0.0,0.0,70,0.00,CLR,CLR,0.00,WeatherDisplay:10.37,2013-02-17 05:42:00,
2013-02-16 23:47:00,28.8,20.5,28.79,SE,135,0.0,0.0,71,0.00,CLR,CLR,0.00,WeatherDisplay:10.37,2013-02-17 05:47:00,
2013-02-16 23:52:00,28.8,20.5,28.79,SE,135,0.0,0.0,71,0.00,CLR,CLR,0.00,WeatherDisplay:10.37,2013-02-17 05:52:00,
2013-02-16 23:57:00,28.6,20.4,28.79,SE,135,0.0,0.0,71,0.00,CLR,CLR,0.00,WeatherDisplay:10.37,2013-02-17 05:57:00,